sensor_id;sensor_type;location;lat;lon;timestamp;P1;durP1;ratioP1;P2;durP2;ratioP2
29878;SDS011;16752;53.364;-1.488;2023-05-14T00:01:32;43.38;;;30.75;;
29878;SDS011;16752;53.364;-1.488;2023-05-14T00:04:17;40.42;;;30.65;;
29878;SDS011;16752;53.364;-1.488;2023-05-14T00:07:02;43.22;;;31.35;;
29878;SDS011;16752;53.364;-1.488;2023-05-14T00:09:46;45.33;;;30.35;;
29878;SDS011;16752;53.364;-1.488;2023-05-14T00:12:31;42.38;;;29.38;;
29878;SDS011;16752;53.364;-1.488;2023-05-14T00:15:15;44.17;;;31.20;;
29878;SDS011;16752;53.364;-1.488;2023-05-14T00:17:59;44.58;;;29.13;;
29878;SDS011;16752;53.364;-1.488;2023-05-14T00:20:43;47.53;;;33.22;;
29878;SDS011;16752;53.364;-1.488;2023-05-14T00:23:27;49.88;;;33.17;;
29878;SDS011;16752;53.364;-1.488;2023-05-14T00:26:11;41.63;;;28.65;;
29878;SDS011;16752;53.364;-1.488;2023-05-14T00:28:55;46.72;;;29.58;;
29878;SDS011;16752;53.364;-1.488;2023-05-14T00:31:39;40.83;;;28.80;;
29878;SDS011;16752;53.364;-1.488;2023-05-14T00:34:23;36.83;;;27.20;;
29878;SDS011;16752;53.364;-1.488;2023-05-14T00:37:07;47.35;;;30.17;;
29878;SDS011;16752;53.364;-1.488;2023-05-14T00:39:51;45.20;;;32.15;;
29878;SDS011;16752;53.364;-1.488;2023-05-14T00:42:35;45.67;;;30.48;;
29878;SDS011;16752;53.364;-1.488;2023-05-14T00:45:19;47.65;;;32.60;;
29878;SDS011;16752;53.364;-1.488;2023-05-14T00:48:03;47.55;;;32.90;;
29878;SDS011;16752;53.364;-1.488;2023-05-14T00:50:48;46.85;;;33.40;;
29878;SDS011;16752;53.364;-1.488;2023-05-14T00:53:34;45.83;;;31.55;;
29878;SDS011;16752;53.364;-1.488;2023-05-14T00:56:18;45.17;;;31.55;;
29878;SDS011;16752;53.364;-1.488;2023-05-14T00:59:04;51.50;;;33.80;;
29878;SDS011;16752;53.364;-1.488;2023-05-14T01:01:48;45.22;;;31.10;;
29878;SDS011;16752;53.364;-1.488;2023-05-14T01:04:32;42.55;;;31.10;;
29878;SDS011;16752;53.364;-1.488;2023-05-14T01:10:12;48.63;;;32.85;;
29878;SDS011;16752;53.364;-1.488;2023-05-14T01:16:09;50.38;;;31.77;;
29878;SDS011;16752;53.364;-1.488;2023-05-14T01:18:56;50.72;;;33.45;;
29878;SDS011;16752;53.364;-1.488;2023-05-14T01:21:43;47.88;;;32.97;;
29878;SDS011;16752;53.364;-1.488;2023-05-14T01:24:27;54.95;;;33.05;;
29878;SDS011;16752;53.364;-1.488;2023-05-14T01:32:53;49.05;;;33.45;;
29878;SDS011;16752;53.364;-1.488;2023-05-14T01:35:41;44.33;;;31.45;;
29878;SDS011;16752;53.364;-1.488;2023-05-14T01:38:26;46.45;;;30.38;;
29878;SDS011;16752;53.364;-1.488;2023-05-14T01:41:14;47.15;;;32.38;;
29878;SDS011;16752;53.364;-1.488;2023-05-14T01:44:00;46.40;;;32.80;;
29878;SDS011;16752;53.364;-1.488;2023-05-14T01:46:45;48.85;;;33.35;;
29878;SDS011;16752;53.364;-1.488;2023-05-14T01:49:29;46.70;;;32.13;;
29878;SDS011;16752;53.364;-1.488;2023-05-14T01:52:13;47.72;;;32.75;;
29878;SDS011;16752;53.364;-1.488;2023-05-14T01:54:58;49.25;;;31.15;;
29878;SDS011;16752;53.364;-1.488;2023-05-14T01:58:01;47.90;;;33.25;;
29878;SDS011;16752;53.364;-1.488;2023-05-14T02:01:16;44.63;;;30.67;;
29878;SDS011;16752;53.364;-1.488;2023-05-14T02:04:54;47.33;;;32.15;;
29878;SDS011;16752;53.364;-1.488;2023-05-14T02:11:21;47.35;;;32.58;;
29878;SDS011;16752;53.364;-1.488;2023-05-14T02:21:59;41.55;;;29.38;;
29878;SDS011;16752;53.364;-1.488;2023-05-14T02:25:39;40.70;;;28.73;;
29878;SDS011;16752;53.364;-1.488;2023-05-14T02:33:01;42.30;;;28.58;;
29878;SDS011;16752;53.364;-1.488;2023-05-14T02:44:48;38.65;;;27.08;;
29878;SDS011;16752;53.364;-1.488;2023-05-14T06:39:50;44.83;;;29.98;;
29878;SDS011;16752;53.364;-1.488;2023-05-14T06:43:40;31.63;;;22.90;;
29878;SDS011;16752;53.364;-1.488;2023-05-14T06:57:52;36.70;;;27.33;;
29878;SDS011;16752;53.364;-1.488;2023-05-14T07:01:03;39.55;;;27.10;;
29878;SDS011;16752;53.364;-1.488;2023-05-14T07:07:03;41.83;;;30.90;;
29878;SDS011;16752;53.364;-1.488;2023-05-14T07:09:51;45.58;;;30.15;;
29878;SDS011;16752;53.364;-1.488;2023-05-14T07:15:21;43.50;;;31.80;;
29878;SDS011;16752;53.364;-1.488;2023-05-14T07:18:11;45.80;;;32.97;;
29878;SDS011;16752;53.364;-1.488;2023-05-14T07:20:55;43.30;;;31.65;;
29878;SDS011;16752;53.364;-1.488;2023-05-14T07:23:39;46.60;;;32.97;;
29878;SDS011;16752;53.364;-1.488;2023-05-14T07:26:26;47.53;;;34.40;;
29878;SDS011;16752;53.364;-1.488;2023-05-14T07:29:11;45.88;;;31.52;;
29878;SDS011;16752;53.364;-1.488;2023-05-14T07:31:55;41.72;;;30.67;;
29878;SDS011;16752;53.364;-1.488;2023-05-14T07:34:39;45.67;;;31.33;;
29878;SDS011;16752;53.364;-1.488;2023-05-14T07:37:23;43.38;;;31.98;;
29878;SDS011;16752;53.364;-1.488;2023-05-14T07:40:08;41.20;;;31.27;;
29878;SDS011;16752;53.364;-1.488;2023-05-14T07:42:52;49.67;;;34.47;;
29878;SDS011;16752;53.364;-1.488;2023-05-14T07:45:37;36.45;;;28.40;;
29878;SDS011;16752;53.364;-1.488;2023-05-14T07:48:24;38.80;;;28.23;;
29878;SDS011;16752;53.364;-1.488;2023-05-14T07:51:16;39.83;;;30.98;;
29878;SDS011;16752;53.364;-1.488;2023-05-14T07:54:00;34.55;;;27.15;;
29878;SDS011;16752;53.364;-1.488;2023-05-14T07:56:45;39.05;;;30.05;;
29878;SDS011;16752;53.364;-1.488;2023-05-14T07:59:29;43.05;;;32.13;;
29878;SDS011;16752;53.364;-1.488;2023-05-14T08:02:14;38.75;;;30.83;;
29878;SDS011;16752;53.364;-1.488;2023-05-14T08:04:59;38.53;;;29.92;;
29878;SDS011;16752;53.364;-1.488;2023-05-14T08:07:43;36.85;;;28.08;;
29878;SDS011;16752;53.364;-1.488;2023-05-14T08:10:27;41.78;;;30.92;;
29878;SDS011;16752;53.364;-1.488;2023-05-14T08:13:11;40.47;;;28.13;;
29878;SDS011;16752;53.364;-1.488;2023-05-14T08:15:55;35.58;;;27.02;;
29878;SDS011;16752;53.364;-1.488;2023-05-14T08:18:39;42.38;;;31.23;;
29878;SDS011;16752;53.364;-1.488;2023-05-14T08:21:25;46.58;;;31.70;;
29878;SDS011;16752;53.364;-1.488;2023-05-14T08:24:10;44.25;;;31.75;;
29878;SDS011;16752;53.364;-1.488;2023-05-14T08:26:54;45.70;;;31.20;;
29878;SDS011;16752;53.364;-1.488;2023-05-14T08:29:38;40.92;;;30.30;;
29878;SDS011;16752;53.364;-1.488;2023-05-14T08:32:22;45.00;;;31.17;;
29878;SDS011;16752;53.364;-1.488;2023-05-14T08:35:10;50.72;;;33.00;;
29878;SDS011;16752;53.364;-1.488;2023-05-14T08:37:54;40.53;;;29.48;;
29878;SDS011;16752;53.364;-1.488;2023-05-14T08:40:54;44.58;;;32.17;;
29878;SDS011;16752;53.364;-1.488;2023-05-14T08:43:48;39.90;;;30.52;;
29878;SDS011;16752;53.364;-1.488;2023-05-14T08:47:22;43.88;;;30.42;;
29878;SDS011;16752;53.364;-1.488;2023-05-14T08:50:17;42.53;;;30.63;;
29878;SDS011;16752;53.364;-1.488;2023-05-14T08:53:08;37.03;;;28.25;;
29878;SDS011;16752;53.364;-1.488;2023-05-14T08:55:53;39.58;;;30.40;;
29878;SDS011;16752;53.364;-1.488;2023-05-14T08:58:43;43.90;;;31.98;;
29878;SDS011;16752;53.364;-1.488;2023-05-14T09:01:33;41.50;;;30.75;;
29878;SDS011;16752;53.364;-1.488;2023-05-14T09:04:19;35.10;;;26.48;;
29878;SDS011;16752;53.364;-1.488;2023-05-14T09:07:06;37.10;;;28.10;;
29878;SDS011;16752;53.364;-1.488;2023-05-14T09:09:57;32.25;;;25.00;;
29878;SDS011;16752;53.364;-1.488;2023-05-14T09:12:48;37.67;;;28.33;;
29878;SDS011;16752;53.364;-1.488;2023-05-14T09:15:32;36.67;;;28.33;;
29878;SDS011;16752;53.364;-1.488;2023-05-14T09:25:36;32.67;;;25.40;;
29878;SDS011;16752;53.364;-1.488;2023-05-14T09:28:42;30.10;;;24.33;;
29878;SDS011;16752;53.364;-1.488;2023-05-14T09:31:32;32.67;;;24.23;;
29878;SDS011;16752;53.364;-1.488;2023-05-14T09:34:40;31.40;;;24.90;;
29878;SDS011;16752;53.364;-1.488;2023-05-14T09:45:12;27.02;;;22.80;;
29878;SDS011;16752;53.364;-1.488;2023-05-14T09:55:19;29.20;;;22.08;;
29878;SDS011;16752;53.364;-1.488;2023-05-14T10:09:48;27.08;;;21.77;;
29878;SDS011;16752;53.364;-1.488;2023-05-14T10:19:44;21.10;;;15.20;;
29878;SDS011;16752;53.364;-1.488;2023-05-14T10:23:14;21.45;;;17.63;;
29878;SDS011;16752;53.364;-1.488;2023-05-14T10:26:18;21.65;;;17.77;;
29878;SDS011;16752;53.364;-1.488;2023-05-14T10:43:50;14.10;;;12.60;;
29878;SDS011;16752;53.364;-1.488;2023-05-14T10:46:47;17.77;;;15.82;;
29878;SDS011;16752;53.364;-1.488;2023-05-14T10:50:08;13.82;;;11.52;;
29878;SDS011;16752;53.364;-1.488;2023-05-14T11:00:38;5.35;;;4.75;;
29878;SDS011;16752;53.364;-1.488;2023-05-14T11:03:38;6.70;;;5.30;;
29878;SDS011;16752;53.364;-1.488;2023-05-14T11:13:41;8.13;;;7.32;;
29878;SDS011;16752;53.364;-1.488;2023-05-14T11:19:24;5.43;;;4.97;;
29878;SDS011;16752;53.364;-1.488;2023-05-14T11:22:37;4.55;;;4.15;;
29878;SDS011;16752;53.364;-1.488;2023-05-14T11:25:25;4.70;;;4.30;;
29878;SDS011;16752;53.364;-1.488;2023-05-14T11:28:09;10.07;;;5.65;;
29878;SDS011;16752;53.364;-1.488;2023-05-14T11:30:53;5.72;;;4.85;;
29878;SDS011;16752;53.364;-1.488;2023-05-14T11:33:38;8.90;;;5.05;;
29878;SDS011;16752;53.364;-1.488;2023-05-14T11:36:25;6.50;;;4.95;;
29878;SDS011;16752;53.364;-1.488;2023-05-14T11:39:18;9.02;;;6.55;;
29878;SDS011;16752;53.364;-1.488;2023-05-14T11:45:22;4.07;;;2.70;;
29878;SDS011;16752;53.364;-1.488;2023-05-14T11:48:10;3.78;;;2.88;;
29878;SDS011;16752;53.364;-1.488;2023-05-14T11:51:00;2.67;;;2.47;;
29878;SDS011;16752;53.364;-1.488;2023-05-14T11:53:50;1.80;;;1.70;;
29878;SDS011;16752;53.364;-1.488;2023-05-14T11:56:37;2.50;;;1.90;;
29878;SDS011;16752;53.364;-1.488;2023-05-14T11:59:25;3.22;;;2.05;;
29878;SDS011;16752;53.364;-1.488;2023-05-14T12:02:12;2.10;;;1.90;;
29878;SDS011;16752;53.364;-1.488;2023-05-14T12:04:58;1.40;;;1.30;;
29878;SDS011;16752;53.364;-1.488;2023-05-14T12:07:44;1.10;;;1.00;;
29878;SDS011;16752;53.364;-1.488;2023-05-14T12:10:39;2.60;;;1.10;;
29878;SDS011;16752;53.364;-1.488;2023-05-14T12:13:28;3.85;;;1.35;;
29878;SDS011;16752;53.364;-1.488;2023-05-14T12:16:14;1.50;;;1.20;;
29878;SDS011;16752;53.364;-1.488;2023-05-14T12:19:00;1.10;;;0.95;;
29878;SDS011;16752;53.364;-1.488;2023-05-14T12:21:45;1.23;;;1.13;;
29878;SDS011;16752;53.364;-1.488;2023-05-14T12:24:31;2.30;;;1.65;;
29878;SDS011;16752;53.364;-1.488;2023-05-14T12:27:16;2.50;;;1.92;;
29878;SDS011;16752;53.364;-1.488;2023-05-14T12:30:03;3.22;;;2.60;;
29878;SDS011;16752;53.364;-1.488;2023-05-14T12:32:52;4.20;;;2.17;;
29878;SDS011;16752;53.364;-1.488;2023-05-14T12:35:40;3.50;;;2.97;;
29878;SDS011;16752;53.364;-1.488;2023-05-14T12:38:24;4.63;;;3.92;;
29878;SDS011;16752;53.364;-1.488;2023-05-14T12:41:08;4.35;;;3.28;;
29878;SDS011;16752;53.364;-1.488;2023-05-14T12:43:52;5.03;;;3.42;;
29878;SDS011;16752;53.364;-1.488;2023-05-14T12:46:42;3.50;;;2.40;;
29878;SDS011;16752;53.364;-1.488;2023-05-14T12:49:52;3.95;;;2.83;;
29878;SDS011;16752;53.364;-1.488;2023-05-14T12:52:50;2.65;;;2.45;;
29878;SDS011;16752;53.364;-1.488;2023-05-14T12:56:00;3.83;;;2.05;;
29878;SDS011;16752;53.364;-1.488;2023-05-14T12:58:44;2.50;;;2.30;;
29878;SDS011;16752;53.364;-1.488;2023-05-14T13:01:29;2.30;;;2.13;;
29878;SDS011;16752;53.364;-1.488;2023-05-14T13:04:13;2.10;;;2.00;;
29878;SDS011;16752;53.364;-1.488;2023-05-14T13:07:17;2.50;;;2.10;;
29878;SDS011;16752;53.364;-1.488;2023-05-14T13:10:01;3.40;;;2.25;;
29878;SDS011;16752;53.364;-1.488;2023-05-14T13:12:55;2.45;;;2.17;;
29878;SDS011;16752;53.364;-1.488;2023-05-14T13:15:39;3.30;;;2.20;;
29878;SDS011;16752;53.364;-1.488;2023-05-14T13:18:26;1.88;;;1.73;;
29878;SDS011;16752;53.364;-1.488;2023-05-14T13:21:14;3.03;;;1.73;;
29878;SDS011;16752;53.364;-1.488;2023-05-14T13:24:01;2.63;;;1.80;;
29878;SDS011;16752;53.364;-1.488;2023-05-14T13:26:52;5.65;;;1.80;;
29878;SDS011;16752;53.364;-1.488;2023-05-14T13:29:42;1.48;;;1.38;;
29878;SDS011;16752;53.364;-1.488;2023-05-14T13:32:29;2.05;;;1.60;;
29878;SDS011;16752;53.364;-1.488;2023-05-14T13:35:18;1.50;;;1.40;;
29878;SDS011;16752;53.364;-1.488;2023-05-14T13:38:05;3.13;;;1.48;;
29878;SDS011;16752;53.364;-1.488;2023-05-14T13:40:50;2.47;;;1.70;;
29878;SDS011;16752;53.364;-1.488;2023-05-14T13:43:35;2.60;;;1.92;;
29878;SDS011;16752;53.364;-1.488;2023-05-14T13:46:18;1.88;;;1.70;;
29878;SDS011;16752;53.364;-1.488;2023-05-14T13:49:03;2.85;;;1.70;;
29878;SDS011;16752;53.364;-1.488;2023-05-14T13:51:50;2.13;;;1.90;;
29878;SDS011;16752;53.364;-1.488;2023-05-14T13:54:52;2.97;;;1.48;;
29878;SDS011;16752;53.364;-1.488;2023-05-14T13:57:36;1.30;;;1.20;;
29878;SDS011;16752;53.364;-1.488;2023-05-14T14:00:28;1.30;;;1.10;;
29878;SDS011;16752;53.364;-1.488;2023-05-14T14:03:12;5.10;;;1.90;;
29878;SDS011;16752;53.364;-1.488;2023-05-14T14:05:56;2.88;;;1.52;;
29878;SDS011;16752;53.364;-1.488;2023-05-14T14:08:43;2.83;;;1.40;;
29878;SDS011;16752;53.364;-1.488;2023-05-14T14:11:39;1.85;;;1.48;;
29878;SDS011;16752;53.364;-1.488;2023-05-14T14:14:24;3.10;;;1.45;;
29878;SDS011;16752;53.364;-1.488;2023-05-14T14:17:08;2.63;;;1.70;;
29878;SDS011;16752;53.364;-1.488;2023-05-14T14:19:52;1.95;;;1.27;;
29878;SDS011;16752;53.364;-1.488;2023-05-14T14:22:37;2.33;;;2.10;;
29878;SDS011;16752;53.364;-1.488;2023-05-14T14:25:24;1.67;;;1.58;;
29878;SDS011;16752;53.364;-1.488;2023-05-14T14:28:08;3.85;;;1.60;;
29878;SDS011;16752;53.364;-1.488;2023-05-14T14:30:52;2.25;;;1.60;;
29878;SDS011;16752;53.364;-1.488;2023-05-14T14:33:36;2.95;;;2.13;;
29878;SDS011;16752;53.364;-1.488;2023-05-14T14:36:20;2.60;;;1.75;;
29878;SDS011;16752;53.364;-1.488;2023-05-14T14:39:04;1.75;;;1.50;;
29878;SDS011;16752;53.364;-1.488;2023-05-14T14:41:48;3.25;;;2.08;;
29878;SDS011;16752;53.364;-1.488;2023-05-14T14:44:32;2.65;;;1.83;;
29878;SDS011;16752;53.364;-1.488;2023-05-14T14:47:16;3.47;;;2.33;;
29878;SDS011;16752;53.364;-1.488;2023-05-14T14:50:03;2.60;;;1.98;;
29878;SDS011;16752;53.364;-1.488;2023-05-14T14:52:48;3.45;;;2.42;;
29878;SDS011;16752;53.364;-1.488;2023-05-14T14:55:33;3.50;;;2.72;;
29878;SDS011;16752;53.364;-1.488;2023-05-14T14:58:17;4.85;;;2.60;;
29878;SDS011;16752;53.364;-1.488;2023-05-14T15:01:03;3.63;;;2.58;;
29878;SDS011;16752;53.364;-1.488;2023-05-14T15:03:47;2.63;;;2.40;;
29878;SDS011;16752;53.364;-1.488;2023-05-14T15:06:32;3.55;;;2.47;;
29878;SDS011;16752;53.364;-1.488;2023-05-14T15:09:16;1.88;;;1.70;;
29878;SDS011;16752;53.364;-1.488;2023-05-14T15:12:00;3.78;;;2.50;;
29878;SDS011;16752;53.364;-1.488;2023-05-14T15:14:44;2.70;;;2.47;;
29878;SDS011;16752;53.364;-1.488;2023-05-14T15:17:28;3.65;;;3.13;;
29878;SDS011;16752;53.364;-1.488;2023-05-14T15:20:12;3.47;;;3.17;;
29878;SDS011;16752;53.364;-1.488;2023-05-14T15:22:57;2.88;;;2.67;;
29878;SDS011;16752;53.364;-1.488;2023-05-14T15:25:41;4.55;;;3.17;;
29878;SDS011;16752;53.364;-1.488;2023-05-14T15:28:25;3.85;;;3.42;;
29878;SDS011;16752;53.364;-1.488;2023-05-14T15:31:09;2.92;;;2.72;;
29878;SDS011;16752;53.364;-1.488;2023-05-14T15:33:52;4.72;;;3.50;;
29878;SDS011;16752;53.364;-1.488;2023-05-14T15:36:38;4.20;;;3.80;;
29878;SDS011;16752;53.364;-1.488;2023-05-14T15:39:22;3.42;;;3.13;;
29878;SDS011;16752;53.364;-1.488;2023-05-14T15:42:09;5.22;;;2.30;;
29878;SDS011;16752;53.364;-1.488;2023-05-14T15:45:01;4.82;;;3.05;;
29878;SDS011;16752;53.364;-1.488;2023-05-14T15:47:45;3.20;;;2.83;;
29878;SDS011;16752;53.364;-1.488;2023-05-14T15:50:29;2.88;;;2.40;;
29878;SDS011;16752;53.364;-1.488;2023-05-14T15:53:13;3.22;;;2.22;;
29878;SDS011;16752;53.364;-1.488;2023-05-14T15:55:57;2.08;;;1.88;;
29878;SDS011;16752;53.364;-1.488;2023-05-14T15:58:51;3.08;;;2.40;;
29878;SDS011;16752;53.364;-1.488;2023-05-14T16:01:37;2.42;;;2.22;;
29878;SDS011;16752;53.364;-1.488;2023-05-14T16:04:21;3.13;;;2.17;;
29878;SDS011;16752;53.364;-1.488;2023-05-14T16:07:08;2.13;;;1.95;;
29878;SDS011;16752;53.364;-1.488;2023-05-14T16:09:52;2.42;;;2.22;;
29878;SDS011;16752;53.364;-1.488;2023-05-14T16:12:38;2.10;;;1.90;;
29878;SDS011;16752;53.364;-1.488;2023-05-14T16:15:22;3.58;;;2.13;;
29878;SDS011;16752;53.364;-1.488;2023-05-14T16:18:12;2.83;;;2.10;;
29878;SDS011;16752;53.364;-1.488;2023-05-14T16:20:57;1.52;;;1.42;;
29878;SDS011;16752;53.364;-1.488;2023-05-14T16:23:44;1.92;;;1.23;;
29878;SDS011;16752;53.364;-1.488;2023-05-14T16:26:49;2.80;;;1.30;;
29878;SDS011;16752;53.364;-1.488;2023-05-14T16:29:36;1.83;;;1.48;;
29878;SDS011;16752;53.364;-1.488;2023-05-14T16:32:21;1.73;;;1.00;;
29878;SDS011;16752;53.364;-1.488;2023-05-14T16:35:05;2.35;;;1.38;;
29878;SDS011;16752;53.364;-1.488;2023-05-14T16:37:49;1.42;;;1.17;;
29878;SDS011;16752;53.364;-1.488;2023-05-14T16:40:33;1.23;;;1.10;;
29878;SDS011;16752;53.364;-1.488;2023-05-14T16:43:17;2.92;;;1.08;;
29878;SDS011;16752;53.364;-1.488;2023-05-14T16:46:01;2.35;;;1.08;;
29878;SDS011;16752;53.364;-1.488;2023-05-14T16:48:45;3.42;;;1.15;;
29878;SDS011;16752;53.364;-1.488;2023-05-14T16:51:29;0.95;;;0.82;;
29878;SDS011;16752;53.364;-1.488;2023-05-14T16:54:14;2.47;;;1.00;;
29878;SDS011;16752;53.364;-1.488;2023-05-14T16:56:58;1.38;;;1.13;;
29878;SDS011;16752;53.364;-1.488;2023-05-14T16:59:42;3.53;;;1.20;;
29878;SDS011;16752;53.364;-1.488;2023-05-14T17:02:26;2.58;;;1.10;;
29878;SDS011;16752;53.364;-1.488;2023-05-14T17:05:10;1.63;;;1.35;;
29878;SDS011;16752;53.364;-1.488;2023-05-14T17:07:54;2.40;;;1.35;;
29878;SDS011;16752;53.364;-1.488;2023-05-14T17:10:39;1.73;;;1.35;;
29878;SDS011;16752;53.364;-1.488;2023-05-14T17:13:23;2.53;;;1.35;;
29878;SDS011;16752;53.364;-1.488;2023-05-14T17:16:07;3.72;;;1.42;;
29878;SDS011;16752;53.364;-1.488;2023-05-14T17:18:51;1.83;;;1.67;;
29878;SDS011;16752;53.364;-1.488;2023-05-14T17:21:35;4.95;;;1.85;;
29878;SDS011;16752;53.364;-1.488;2023-05-14T17:24:19;5.13;;;3.00;;
29878;SDS011;16752;53.364;-1.488;2023-05-14T17:27:04;5.95;;;3.92;;
29878;SDS011;16752;53.364;-1.488;2023-05-14T17:29:48;5.40;;;4.15;;
29878;SDS011;16752;53.364;-1.488;2023-05-14T17:32:35;5.88;;;3.83;;
29878;SDS011;16752;53.364;-1.488;2023-05-14T17:35:19;5.07;;;4.50;;
29878;SDS011;16752;53.364;-1.488;2023-05-14T17:38:06;4.57;;;4.18;;
29878;SDS011;16752;53.364;-1.488;2023-05-14T17:40:51;8.43;;;4.60;;
29878;SDS011;16752;53.364;-1.488;2023-05-14T17:43:35;7.70;;;4.82;;
29878;SDS011;16752;53.364;-1.488;2023-05-14T17:46:19;5.75;;;4.53;;
29878;SDS011;16752;53.364;-1.488;2023-05-14T17:49:04;9.75;;;6.05;;
29878;SDS011;16752;53.364;-1.488;2023-05-14T17:51:48;6.25;;;4.65;;
29878;SDS011;16752;53.364;-1.488;2023-05-14T17:54:31;5.53;;;4.30;;
29878;SDS011;16752;53.364;-1.488;2023-05-14T17:57:15;6.80;;;4.13;;
29878;SDS011;16752;53.364;-1.488;2023-05-14T17:59:59;5.72;;;4.68;;
29878;SDS011;16752;53.364;-1.488;2023-05-14T18:02:43;8.02;;;4.28;;
29878;SDS011;16752;53.364;-1.488;2023-05-14T18:05:28;7.43;;;4.78;;
29878;SDS011;16752;53.364;-1.488;2023-05-14T18:08:14;4.50;;;4.13;;
29878;SDS011;16752;53.364;-1.488;2023-05-14T18:10:58;6.05;;;3.95;;
29878;SDS011;16752;53.364;-1.488;2023-05-14T18:13:43;5.07;;;4.50;;
29878;SDS011;16752;53.364;-1.488;2023-05-14T18:16:27;10.82;;;4.28;;
29878;SDS011;16752;53.364;-1.488;2023-05-14T18:19:12;5.72;;;4.30;;
29878;SDS011;16752;53.364;-1.488;2023-05-14T18:21:56;8.80;;;4.82;;
29878;SDS011;16752;53.364;-1.488;2023-05-14T18:24:40;5.55;;;3.92;;
29878;SDS011;16752;53.364;-1.488;2023-05-14T18:27:44;8.10;;;3.85;;
29878;SDS011;16752;53.364;-1.488;2023-05-14T18:30:32;5.47;;;3.53;;
29878;SDS011;16752;53.364;-1.488;2023-05-14T18:33:16;5.47;;;3.50;;
29878;SDS011;16752;53.364;-1.488;2023-05-14T18:36:02;4.05;;;3.60;;
29878;SDS011;16752;53.364;-1.488;2023-05-14T18:38:49;7.63;;;3.90;;
29878;SDS011;16752;53.364;-1.488;2023-05-14T18:41:33;5.57;;;3.78;;
29878;SDS011;16752;53.364;-1.488;2023-05-14T18:44:17;4.30;;;3.65;;
29878;SDS011;16752;53.364;-1.488;2023-05-14T18:47:04;6.75;;;3.70;;
29878;SDS011;16752;53.364;-1.488;2023-05-14T18:49:51;5.93;;;3.53;;
29878;SDS011;16752;53.364;-1.488;2023-05-14T18:52:44;6.93;;;3.83;;
29878;SDS011;16752;53.364;-1.488;2023-05-14T18:55:28;7.85;;;3.55;;
29878;SDS011;16752;53.364;-1.488;2023-05-14T18:58:12;4.78;;;3.78;;
29878;SDS011;16752;53.364;-1.488;2023-05-14T19:00:57;5.25;;;2.83;;
29878;SDS011;16752;53.364;-1.488;2023-05-14T19:03:41;7.57;;;3.42;;
29878;SDS011;16752;53.364;-1.488;2023-05-14T19:06:35;8.43;;;3.50;;
29878;SDS011;16752;53.364;-1.488;2023-05-14T19:09:18;7.97;;;2.97;;
29878;SDS011;16752;53.364;-1.488;2023-05-14T19:12:03;5.55;;;3.00;;
29878;SDS011;16752;53.364;-1.488;2023-05-14T19:14:48;4.13;;;2.80;;
29878;SDS011;16752;53.364;-1.488;2023-05-14T19:17:32;8.23;;;3.05;;
29878;SDS011;16752;53.364;-1.488;2023-05-14T19:20:16;6.45;;;3.10;;
29878;SDS011;16752;53.364;-1.488;2023-05-14T19:23:00;7.47;;;3.10;;
29878;SDS011;16752;53.364;-1.488;2023-05-14T19:25:44;3.22;;;2.80;;
29878;SDS011;16752;53.364;-1.488;2023-05-14T19:28:28;4.40;;;2.92;;
29878;SDS011;16752;53.364;-1.488;2023-05-14T19:31:13;4.95;;;2.85;;
29878;SDS011;16752;53.364;-1.488;2023-05-14T19:33:58;4.55;;;2.90;;
29878;SDS011;16752;53.364;-1.488;2023-05-14T19:36:48;3.28;;;2.70;;
29878;SDS011;16752;53.364;-1.488;2023-05-14T19:39:35;5.15;;;2.78;;
29878;SDS011;16752;53.364;-1.488;2023-05-14T19:42:19;4.85;;;2.70;;
29878;SDS011;16752;53.364;-1.488;2023-05-14T19:45:03;2.10;;;2.00;;
29878;SDS011;16752;53.364;-1.488;2023-05-14T19:47:47;4.03;;;2.60;;
29878;SDS011;16752;53.364;-1.488;2023-05-14T19:50:34;5.50;;;2.10;;
29878;SDS011;16752;53.364;-1.488;2023-05-14T19:53:21;2.50;;;2.30;;
29878;SDS011;16752;53.364;-1.488;2023-05-14T19:56:12;2.35;;;2.10;;
29878;SDS011;16752;53.364;-1.488;2023-05-14T19:58:56;3.42;;;1.75;;
29878;SDS011;16752;53.364;-1.488;2023-05-14T20:01:40;2.72;;;1.60;;
29878;SDS011;16752;53.364;-1.488;2023-05-14T20:04:24;6.90;;;2.78;;
29878;SDS011;16752;53.364;-1.488;2023-05-14T20:07:11;3.63;;;1.85;;
29878;SDS011;16752;53.364;-1.488;2023-05-14T20:09:57;3.92;;;1.90;;
29878;SDS011;16752;53.364;-1.488;2023-05-14T20:12:42;3.20;;;2.05;;
29878;SDS011;16752;53.364;-1.488;2023-05-14T20:15:26;4.22;;;2.13;;
29878;SDS011;16752;53.364;-1.488;2023-05-14T20:18:11;6.13;;;2.45;;
29878;SDS011;16752;53.364;-1.488;2023-05-14T20:20:58;4.40;;;2.65;;
29878;SDS011;16752;53.364;-1.488;2023-05-14T20:23:42;4.22;;;2.70;;
29878;SDS011;16752;53.364;-1.488;2023-05-14T20:26:25;2.65;;;2.45;;
29878;SDS011;16752;53.364;-1.488;2023-05-14T20:29:09;4.40;;;2.95;;
29878;SDS011;16752;53.364;-1.488;2023-05-14T20:31:57;5.07;;;2.85;;
29878;SDS011;16752;53.364;-1.488;2023-05-14T20:34:41;4.65;;;2.50;;
29878;SDS011;16752;53.364;-1.488;2023-05-14T20:37:25;3.38;;;2.58;;
29878;SDS011;16752;53.364;-1.488;2023-05-14T20:40:09;4.75;;;2.88;;
29878;SDS011;16752;53.364;-1.488;2023-05-14T20:42:55;3.70;;;2.72;;
29878;SDS011;16752;53.364;-1.488;2023-05-14T20:45:42;8.80;;;2.80;;
29878;SDS011;16752;53.364;-1.488;2023-05-14T20:48:26;4.35;;;2.80;;
29878;SDS011;16752;53.364;-1.488;2023-05-14T20:51:10;6.40;;;2.67;;
29878;SDS011;16752;53.364;-1.488;2023-05-14T20:53:54;4.57;;;3.00;;
29878;SDS011;16752;53.364;-1.488;2023-05-14T20:56:38;3.92;;;3.00;;
29878;SDS011;16752;53.364;-1.488;2023-05-14T20:59:22;4.13;;;3.00;;
29878;SDS011;16752;53.364;-1.488;2023-05-14T21:02:07;3.83;;;2.42;;
29878;SDS011;16752;53.364;-1.488;2023-05-14T21:04:51;3.22;;;2.92;;
29878;SDS011;16752;53.364;-1.488;2023-05-14T21:07:38;3.03;;;2.83;;
29878;SDS011;16752;53.364;-1.488;2023-05-14T21:10:22;3.35;;;2.30;;
29878;SDS011;16752;53.364;-1.488;2023-05-14T21:13:05;3.55;;;2.30;;
29878;SDS011;16752;53.364;-1.488;2023-05-14T21:15:50;2.25;;;2.08;;
29878;SDS011;16752;53.364;-1.488;2023-05-14T21:18:34;2.42;;;1.92;;
29878;SDS011;16752;53.364;-1.488;2023-05-14T21:21:19;2.05;;;1.70;;
29878;SDS011;16752;53.364;-1.488;2023-05-14T21:24:03;2.15;;;1.17;;
29878;SDS011;16752;53.364;-1.488;2023-05-14T21:26:47;2.63;;;1.48;;
29878;SDS011;16752;53.364;-1.488;2023-05-14T21:29:30;2.45;;;1.23;;
29878;SDS011;16752;53.364;-1.488;2023-05-14T21:32:14;1.85;;;1.50;;
29878;SDS011;16752;53.364;-1.488;2023-05-14T21:34:58;2.17;;;1.67;;
29878;SDS011;16752;53.364;-1.488;2023-05-14T21:37:42;3.92;;;1.25;;
29878;SDS011;16752;53.364;-1.488;2023-05-14T21:40:26;1.55;;;1.30;;
29878;SDS011;16752;53.364;-1.488;2023-05-14T21:43:10;1.35;;;0.80;;
29878;SDS011;16752;53.364;-1.488;2023-05-14T21:45:55;1.85;;;0.80;;
29878;SDS011;16752;53.364;-1.488;2023-05-14T21:48:39;1.20;;;1.10;;
29878;SDS011;16752;53.364;-1.488;2023-05-14T21:51:23;1.42;;;0.80;;
29878;SDS011;16752;53.364;-1.488;2023-05-14T21:54:06;1.33;;;0.90;;
29878;SDS011;16752;53.364;-1.488;2023-05-14T21:56:50;0.68;;;0.65;;
29878;SDS011;16752;53.364;-1.488;2023-05-14T21:59:35;1.60;;;0.77;;
29878;SDS011;16752;53.364;-1.488;2023-05-14T22:02:19;1.67;;;1.58;;
29878;SDS011;16752;53.364;-1.488;2023-05-14T22:05:03;7.07;;;4.25;;
29878;SDS011;16752;53.364;-1.488;2023-05-14T22:07:48;7.18;;;4.60;;
29878;SDS011;16752;53.364;-1.488;2023-05-14T22:10:33;6.60;;;3.55;;
29878;SDS011;16752;53.364;-1.488;2023-05-14T22:13:22;4.63;;;2.78;;
29878;SDS011;16752;53.364;-1.488;2023-05-14T22:16:07;4.22;;;2.58;;
29878;SDS011;16752;53.364;-1.488;2023-05-14T22:18:52;7.32;;;3.08;;
29878;SDS011;16752;53.364;-1.488;2023-05-14T22:21:36;5.22;;;2.95;;
29878;SDS011;16752;53.364;-1.488;2023-05-14T22:24:25;5.20;;;3.00;;
29878;SDS011;16752;53.364;-1.488;2023-05-14T22:27:12;4.05;;;2.90;;